Latest Weather Observations for Coolangatta

IDN60801

Issued at 10:32 am EST Sunday 16 June 2019 (issued every 10 minutes, with the page automatically refreshed every 10 minutes)

About weather observations | Map of weather stations | Latest weather observations for NSW | Other Formats
Station Details ID: 040717 Name: COOLANGATTA Lat: -28.17 Lon: 153.51 Height: 4.0 m
Data from the previous 72 hours. | See also: Recent months at Coolangatta
Date/Time
EST
Temp
°C
App
Temp
°C
Dew
Point
°C
Rel
Hum
%
Delta-T
°C
Wind Press
QNH
hPa
Press
MSL
hPa
Rain since
9am
mm
Dir  Spd
km/h
Gust
km/h
Spd
kts
Gust
kts
16/10:30am 19.8 21.6 17.4 86 1.5 SW 4 9 2 5 1019.3 1019.3 0.0
16/10:00am 19.5 22.1 17.5 88 1.2 CALM 0 0 0 0 1019.5 1019.5 0.0
16/09:30am 19.2 21.6 17.9 92 0.8 WSW 2 6 1 3 1019.7 1019.7 0.0
16/09:00am 19.2 21.0 18.4 95 0.5 S 6 7 3 4 1019.7 1019.7 24.2
16/08:30am 18.4 21.3 18.2 99 0.1 CALM 0 0 0 0 1019.3 1019.3 24.2
16/08:00am 17.9 20.6 17.7 99 0.1 CALM 0 6 0 3 1018.9 1018.9 24.2
16/07:30am 17.3 18.4 17.1 99 0.1 SSE 7 9 4 5 1018.6 1018.6 24.2
16/07:00am 16.9 17.8 16.7 99 0.1 SSE 7 9 4 5 1018.7 1018.7 24.2
16/06:30am 17.3 18.4 17.1 99 0.1 S 7 11 4 6 1018.6 1018.6 24.2
16/06:00am 17.2 18.5 17.0 99 0.1 SE 6 9 3 5 1018.0 1018.0 24.0
16/05:30am 17.1 18.3 16.9 99 0.1 SW 6 7 3 4 1017.8 1017.8 24.0
16/05:26am 17.0 18.2 16.8 99 0.1 SW 6 7 3 4 1017.8 1017.8 24.0
16/05:10am 16.8 17.9 16.6 99 0.1 SSW 6 9 3 5 1017.5 1017.5 24.0
16/05:09am 16.8 17.9 16.6 99 0.1 SSW 6 9 3 5 1017.5 1017.5 24.0
16/05:00am 16.7 18.5 16.5 99 0.1 SSW 2 6 1 3 1017.4 1017.4 24.0
16/04:44am 16.3 18.3 16.1 99 0.1 CALM 0 0 0 0 1017.4 1017.4 24.0
16/04:30am 16.2 18.2 16.0 99 0.1 CALM 0 0 0 0 1017.2 1017.2 24.0
16/04:20am 16.2 18.2 16.0 99 0.1 CALM 0 0 0 0 1017.2 1017.2 24.0
16/04:00am 16.8 18.7 16.6 99 0.1 SSW 2 6 1 3 1017.3 1017.3 24.0
16/03:44am 17.0 18.6 16.8 99 0.1 SSW 4 7 2 4 1017.5 1017.5 24.0
16/03:30am 17.4 19.9 17.2 99 0.1 CALM 0 0 0 0 1017.7 1017.7 24.0
16/03:00am 17.0 18.0 16.8 99 0.1 SSW 7 9 4 5 1017.7 1017.7 24.0
16/02:30am 17.5 18.7 17.3 99 0.1 SSW 7 11 4 6 1017.9 1017.9 24.0
16/02:00am 17.6 17.7 17.4 99 0.1 SSE 13 15 7 8 1018.0 1018.0 24.0
16/01:30am 17.2 18.5 17.0 99 0.1 SW 6 9 3 5 1018.2 1018.2 24.0
16/01:22am 17.1 18.3 16.9 99 0.1 SW 6 7 3 4 1018.1 1018.1 24.0
16/01:03am 17.1 19.5 16.9 99 0.1 CALM 0 0 0 0 1018.1 1018.1 24.0
16/01:00am 17.2 19.6 17.0 99 0.1 CALM 0 0 0 0 1018.2 1018.2 24.0
16/12:32am 17.2 18.3 17.0 99 0.1 SW 7 9 4 5 1018.2 1018.2 24.0
16/12:30am 17.2 18.5 17.0 99 0.1 SW 6 9 3 5 1018.2 1018.2 24.0
16/12:04am 17.0 18.0 16.8 99 0.1 SSE 7 9 4 5 1018.3 1018.3 24.0
16/12:00am 17.0 18.0 16.8 99 0.1 SSE 7 9 4 5 1018.2 1018.2 24.0
 
Date/Time
EST
Temp
°C
App
Temp
°C
Dew
Point
°C
Rel
Hum
%
Delta-T
°C
Wind Press
QNH
hPa
Press
MSL
hPa
Rain since
9am
mm
Dir  Spd
km/h
Gust
km/h
Spd
kts
Gust
kts
15/11:53pm 16.5 17.3 16.3 99 0.1 SSE 7 9 4 5 1018.2 1018.2 24.0
15/11:30pm 16.7 17.8 16.5 99 0.1 S 6 9 3 5 1018.4 1018.4 24.0
15/11:19pm 17.0 18.2 16.8 99 0.1 S 6 9 3 5 1018.5 1018.5 24.0
15/11:01pm 16.7 16.8 16.5 99 0.1 WSW 11 13 6 7 1018.4 1018.4 24.0
15/11:00pm 16.8 16.9 16.6 99 0.1 WSW 11 13 6 7 1018.4 1018.4 24.0
15/10:46pm 17.0 16.8 16.8 99 0.1 WSW 13 15 7 8 1018.5 1018.5 24.0
15/10:30pm 17.2 17.9 17.0 99 0.1 WSW 9 11 5 6 1018.6 1018.6 24.0
15/10:00pm 17.4 18.2 17.2 99 0.1 WSW 9 13 5 7 1018.5 1018.5 24.0
15/09:30pm 17.6 18.4 17.4 99 0.1 WSW 9 11 5 6 1018.4 1018.4 24.0
15/09:00pm 17.8 19.1 17.6 99 0.1 SW 7 11 4 6 1018.5 1018.5 24.0
15/08:30pm 17.9 19.3 17.7 99 0.1 WSW 7 9 4 5 1018.7 1018.7 24.0
15/08:00pm 18.0 19.0 17.8 99 0.1 WSW 9 13 5 7 1018.5 1018.5 24.0
15/07:30pm 18.2 19.9 18.0 99 0.1 SW 6 9 3 5 1018.3 1018.3 24.0
15/07:00pm 18.3 20.0 18.1 99 0.1 SW 6 11 3 6 1018.1 1018.1 24.0
15/06:30pm 18.4 20.0 18.2 99 0.1 WSW 7 9 4 5 1017.8 1017.8 23.8
15/06:00pm 19.0 20.8 18.8 99 0.1 SW 7 9 4 5 1017.6 1017.6 23.8
15/05:30pm 19.0 20.7 18.5 97 0.3 SW 7 9 4 5 1017.3 1017.3 23.8
15/05:00pm 19.3 21.1 18.3 94 0.6 SSE 6 6 3 3 1017.1 1017.1 23.8
15/04:30pm 20.1 21.8 18.6 91 0.9 ESE 7 11 4 6 1016.9 1016.9 23.8
15/04:00pm 20.2 21.6 18.7 91 0.9 SE 9 11 5 6 1016.7 1016.7 23.8
15/03:30pm 20.5 21.6 19.7 95 0.5 SE 13 15 7 8 1016.8 1016.8 23.8
15/03:00pm 20.3 21.7 19.5 95 0.5 SE 11 17 6 9 1016.7 1016.7 23.8
15/02:59pm 20.2 21.5 19.4 95 0.5 SE 11 17 6 9 1016.7 1016.7 23.8
15/02:30pm 18.4 15.9 16.2 87 1.3 SSE 24 39 13 21 1017.1 1017.1 11.0
15/02:25pm 19.6 18.0 17.4 87 1.3 SSE 22 35 12 19 1016.8 1016.8 2.8
15/02:00pm 23.1 22.7 17.1 69 3.7 E 15 19 8 10 1016.7 1016.7 0.0
15/01:30pm 23.5 23.4 17.0 67 4.0 E 13 19 7 10 1016.8 1016.8 0.0
15/01:00pm 23.4 23.5 16.4 64 4.3 ENE 11 17 6 9 1017.1 1017.1 0.0
15/12:30pm 23.7 23.7 16.2 63 4.6 E 11 22 6 12 1017.4 1017.4 0.0
15/12:00pm 23.0 22.9 17.0 69 3.7 SE 13 15 7 8 1018.0 1018.0 0.0
15/11:30am 22.7 23.3 16.7 69 3.7 S 9 13 5 7 1018.4 1018.4 0.0
15/11:00am 22.8 23.3 17.5 72 3.3 SSE 11 15 6 8 1018.9 1018.9 0.0
15/10:30am 21.7 21.3 17.1 75 2.8 SSE 15 20 8 11 1019.2 1019.2 0.0
15/10:00am 22.0 22.4 17.2 74 2.9 S 11 19 6 10 1019.5 1019.5 0.0
15/09:30am 21.5 21.5 17.1 76 2.7 S 13 17 7 9 1019.5 1019.5 0.0
15/09:00am 21.4 21.6 17.6 79 2.3 S 13 19 7 10 1019.4 1019.4 0.2
15/08:30am 19.7 21.2 18.0 90 1.0 SSW 7 9 4 5 1019.1 1019.1 0.2
15/08:00am 18.5 19.9 17.7 95 0.5 SW 7 11 4 6 1018.9 1018.9 0.2
15/07:31am 17.5 18.9 17.3 99 0.1 SW 6 9 3 5 1018.7 1018.7 0.2
15/07:30am 17.4 18.7 17.2 99 0.1 SW 6 9 3 5 1018.7 1018.7 0.2
15/07:09am 16.1 17.3 15.9 99 0.1 SSW 4 6 2 3 1018.5 1018.5 0.2
15/07:00am 16.4 17.3 16.2 99 0.1 SW 6 7 3 4 1018.5 1018.5 0.2
15/06:30am 16.6 17.0 16.3 98 0.2 SW 9 15 5 8 1018.3 1018.3 0.0
15/06:29am 16.4 16.7 16.1 98 0.2 SW 9 15 5 8 1018.3 1018.3 0.0
15/06:17am 16.2 17.3 15.7 97 0.3 SW 4 9 2 5 1018.0 1018.0 0.0
15/06:08am 15.7 17.4 15.1 96 0.3 CALM 0 2 0 1 1017.9 1017.9 0.0
15/06:05am 16.5 18.5 16.0 97 0.3 CALM 0 6 0 3 1017.7 1017.7 0.0
15/06:04am 16.6 18.3 16.1 97 0.3 SW 2 6 1 3 1017.7 1017.7 0.0
15/06:00am 16.5 17.7 16.0 97 0.3 SW 4 7 2 4 1017.6 1017.6 0.0
15/05:51am 16.4 17.6 15.8 96 0.4 SSW 4 7 2 4 1017.7 1017.7 0.0
15/05:46am 16.5 18.5 15.9 96 0.4 CALM 0 6 0 3 1017.7 1017.7 0.0
15/05:41am 16.9 18.3 16.3 96 0.4 SSW 4 6 2 3 1017.6 1017.6 0.0
15/05:37am 17.2 18.3 16.6 96 0.4 SSW 6 9 3 5 1017.5 1017.5 0.0
15/05:30am 16.8 17.5 16.2 96 0.4 S 7 9 4 5 1017.5 1017.5 0.0
15/05:17am 16.4 18.1 15.3 93 0.6 CALM 0 6 0 3 1017.3 1017.3 0.0
15/05:00am 17.4 18.4 16.4 94 0.6 SSW 6 9 3 5 1017.3 1017.3 0.0
15/04:30am 18.0 18.9 16.7 92 0.8 SSW 7 13 4 7 1017.2 1017.2 0.0
15/04:00am 17.9 18.9 16.9 94 0.6 SSW 7 9 4 5 1016.9 1016.9 0.0
15/03:30am 18.0 18.8 17.2 95 0.5 S 9 13 5 7 1016.8 1016.8 0.0
15/03:00am 17.9 18.5 16.9 94 0.6 SSE 9 9 5 5 1017.1 1017.1 0.0
15/02:30am 18.2 19.0 17.4 95 0.5 SE 9 11 5 6 1017.1 1017.1 0.0
15/02:00am 18.2 19.0 17.4 95 0.5 WSW 9 11 5 6 1017.6 1017.6 0.0
15/01:30am 17.8 18.6 17.3 97 0.3 SW 9 11 5 6 1017.6 1017.6 0.0
15/01:00am 17.6 19.2 17.0 96 0.4 SW 4 7 2 4 1017.7 1017.7 0.0
15/12:30am 17.7 18.8 17.1 96 0.4 SW 7 9 4 5 1017.9 1017.9 0.0
15/12:00am 17.5 19.8 16.7 95 0.5 CALM 0 0 0 0 1017.8 1017.8 0.0
 
Date/Time
EST
Temp
°C
App
Temp
°C
Dew
Point
°C
Rel
Hum
%
Delta-T
°C
Wind Press
QNH
hPa
Press
MSL
hPa
Rain since
9am
mm
Dir  Spd
km/h
Gust
km/h
Spd
kts
Gust
kts
14/11:30pm 17.8 18.5 17.0 95 0.5 SW 9 11 5 6 1017.9 1017.9 0.0
14/11:00pm 18.2 19.4 17.4 95 0.5 WSW 7 11 4 6 1018.3 1018.3 0.0
14/10:30pm 18.3 20.7 17.1 93 0.7 CALM 0 6 0 3 1018.4 1018.4 0.0
14/10:00pm 18.5 19.9 17.3 93 0.7 SW 6 9 3 5 1018.8 1018.8 0.0
14/09:30pm 18.4 19.7 17.2 93 0.7 SW 6 7 3 4 1018.8 1018.8 0.0
14/09:00pm 18.4 20.4 16.9 91 0.9 SW 2 7 1 4 1018.8 1018.8 0.0
14/08:30pm 18.7 19.2 17.4 92 0.8 WSW 11 13 6 7 1018.7 1018.7 0.0
14/08:00pm 18.5 18.9 17.3 93 0.7 SW 11 15 6 8 1018.5 1018.5 0.0
14/07:30pm 18.5 18.9 17.3 93 0.7 WSW 11 15 6 8 1018.2 1018.2 0.0
14/07:00pm 18.3 19.6 17.0 92 0.8 SSW 6 9 3 5 1018.0 1018.0 0.0
14/06:30pm 18.8 20.0 16.8 88 1.2 SSW 6 7 3 4 1018.0 1018.0 0.0
14/06:00pm 19.7 21.1 17.3 86 1.5 S 6 7 3 4 1017.6 1017.6 0.0
14/05:30pm 20.0 21.0 16.8 82 1.9 SSE 7 11 4 6 1017.2 1017.2 0.0
14/05:00pm 21.1 20.8 17.3 79 2.3 SE 15 19 8 10 1017.0 1017.0 0.0
14/04:30pm 21.9 22.3 18.1 79 2.4 SSE 13 17 7 9 1016.7 1016.7 0.0
14/04:00pm 22.3 21.6 17.4 74 3.0 SE 17 22 9 12 1016.5 1016.5 0.0
14/03:30pm 22.4 21.2 17.5 74 3.0 SE 20 26 11 14 1016.5 1016.5 0.0
14/03:00pm 23.4 22.1 16.9 67 4.0 SE 19 22 10 12 1016.4 1016.4 0.0
14/02:30pm 23.8 22.1 16.3 63 4.6 ESE 20 26 11 14 1016.3 1016.3 0.0
14/02:00pm 23.4 20.8 13.3 53 5.8 SE 19 24 10 13 1016.4 1016.4 0.0
14/01:30pm 24.5 22.3 14.3 53 6.0 ESE 19 26 10 14 1016.5 1016.5 0.0
14/01:00pm 24.8 22.0 12.7 47 7.0 SE 19 24 10 13 1016.5 1016.5 0.0
14/12:30pm 24.8 21.4 11.4 43 7.6 SE 20 26 11 14 1017.1 1017.1 0.0
14/12:00pm 25.3 21.9 11.1 41 8.0 SE 20 24 11 13 1017.2 1017.2 0.0
14/11:30am 25.7 24.7 13.5 46 7.2 ENE 11 13 6 7 1017.5 1017.5 0.0
14/11:00am 25.1 24.4 13.3 48 6.9 NNE 9 13 5 7 1017.8 1017.8 0.0
14/10:30am 24.3 24.5 14.1 53 6.0 NNE 6 7 3 4 1018.1 1018.1 0.0
14/10:00am 23.7 23.9 14.7 57 5.3 NNE 7 9 4 5 1018.3 1018.3 0.0
14/09:30am 22.4 23.7 14.0 59 4.9 CALM 0 6 0 3 1018.4 1018.4 0.0
14/09:00am 19.7 21.1 14.5 72 3.0 CALM 0 6 0 3 1018.4 1018.4 0.0
14/08:30am 17.4 18.8 14.5 83 1.7 CALM 0 0 0 0 1018.1 1018.1 0.0
14/08:00am 16.1 17.3 14.8 92 0.7 SW 2 9 1 5 1018.1 1018.1 0.0
14/07:30am 14.7 16.1 14.4 98 0.2 CALM 0 2 0 1 1018.1 1018.1 0.0
14/07:00am 13.5 14.1 13.2 98 0.2 SW 2 9 1 5 1017.6 1017.6 0.0
14/06:30am 13.4 14.4 13.2 99 0.1 CALM 0 0 0 0 1017.4 1017.4 0.0
14/06:00am 12.6 13.3 12.3 98 0.2 CALM 0 0 0 0 1017.2 1017.2 0.0
14/05:30am 12.6 13.4 12.4 99 0.1 CALM 0 0 0 0 1016.8 1016.8 0.0
14/05:00am 12.1 12.3 11.8 98 0.2 WSW 2 7 1 4 1016.6 1016.6 0.0
14/04:30am 12.5 13.2 12.3 99 0.1 CALM 0 0 0 0 1016.3 1016.3 0.0
14/04:00am 12.9 12.6 12.7 99 0.1 WSW 6 9 3 5 1016.3 1016.3 0.0
14/03:30am 12.7 12.3 12.5 99 0.1 WSW 6 7 3 4 1016.2 1016.2 0.0
14/03:00am 12.7 12.3 12.4 98 0.2 WSW 6 7 3 4 1016.2 1016.2 0.0
14/02:30am 13.1 12.9 12.9 99 0.1 WSW 6 9 3 5 1016.8 1016.8 0.0
14/02:00am 13.6 14.3 13.4 99 0.1 WSW 2 6 1 3 1016.7 1016.7 0.0
14/01:41am 13.4 13.0 13.1 98 0.2 WSW 7 9 4 5 1016.8 1016.8 0.0
14/01:30am 13.1 13.2 12.6 97 0.3 WSW 4 9 2 5 1016.9 1016.9 0.0
14/01:21am 13.6 14.3 13.3 98 0.2 WSW 2 6 1 3 1016.8 1016.8 0.0
14/01:19am 14.0 14.8 13.8 99 0.1 WSW 2 6 1 3 1016.9 1016.9 0.0
14/01:06am 13.5 13.7 13.0 97 0.3 WSW 4 7 2 4 1017.2 1017.2 0.0
14/01:00am 12.9 13.6 12.1 95 0.4 CALM 0 0 0 0 1017.1 1017.1 0.0
14/12:58am 13.2 14.0 12.4 95 0.4 CALM 0 0 0 0 1017.1 1017.1 0.0
14/12:36am 14.2 15.4 13.7 97 0.3 CALM 0 0 0 0 1017.5 1017.5 0.0
14/12:30am 14.4 15.6 13.9 97 0.3 CALM 0 0 0 0 1017.5 1017.5 0.0
14/12:00am 14.3 14.1 13.7 96 0.3 W 7 9 4 5 1017.7 1017.7 0.0
 
Date/Time
EST
Temp
°C
App
Temp
°C
Dew
Point
°C
Rel
Hum
%
Delta-T
°C
Wind Press
QNH
hPa
Press
MSL
hPa
Rain since
9am
mm
Dir  Spd
km/h
Gust
km/h
Spd
kts
Gust
kts
13/11:30pm 14.8 14.4 14.0 95 0.4 WNW 9 11 5 6 1018.2 1018.2 0.0
13/11:00pm 14.6 14.3 12.8 89 1.0 NW 6 7 3 4 1018.3 1018.3 0.0
13/10:30pm 15.7 15.4 14.4 92 0.7 N 9 11 5 6 1018.6 1018.6 0.0
13/10:00pm 15.6 15.7 14.0 90 0.9 NNW 6 9 3 5 1018.7 1018.7 0.0
13/09:30pm 16.7 17.8 14.7 88 1.1 WNW 2 6 1 3 1018.6 1018.6 0.0
13/09:00pm 17.4 17.3 14.9 85 1.4 NW 9 13 5 7 1018.5 1018.5 0.0
13/08:30pm 18.2 17.8 15.3 83 1.7 NNW 11 17 6 9 1018.4 1018.4 0.0
13/08:00pm 18.4 17.7 15.3 82 1.8 NW 13 20 7 11 1018.1 1018.1 0.0
13/07:30pm 18.3 17.8 14.8 80 2.0 NW 11 15 6 8 1017.9 1017.9 0.0
13/07:00pm 18.2 17.6 14.5 79 2.1 NW 11 15 6 8 1017.7 1017.7 0.0
13/06:30pm 19.3 18.5 15.2 77 2.4 NW 13 19 7 10 1017.9 1017.9 0.0
13/06:00pm 18.9 18.4 14.8 77 2.4 NW 11 17 6 9 1018.0 1018.0 0.0
13/05:30pm 20.0 18.1 15.2 74 2.8 NNW 19 26 10 14 1017.4 1017.4 0.0
13/05:00pm 20.5 18.4 15.1 71 3.2 NNW 20 28 11 15 1017.3 1017.3 0.0
13/04:30pm 21.0 19.0 15.5 71 3.3 NNW 20 26 11 14 1016.7 1016.7 0.0
13/04:00pm 21.9 19.3 16.0 69 3.5 N 24 30 13 16 1016.7 1016.7 0.0
13/03:30pm 22.0 20.2 15.6 67 3.8 NNW 19 26 10 14 1016.8 1016.8 0.0
13/03:00pm 23.3 21.3 13.8 55 5.5 NW 17 28 9 15 1016.7 1016.7 0.0
13/02:30pm 23.0 20.9 13.5 55 5.5 NNW 17 26 9 14 1017.2 1017.2 0.0
13/02:00pm 23.1 20.4 13.0 53 5.8 NNW 19 30 10 16 1017.2 1017.2 0.0
13/01:30pm 23.2 20.8 12.8 52 6.0 NNW 17 24 9 13 1017.4 1017.4 0.0
13/01:00pm 22.7 20.3 12.6 53 5.7 NNW 17 24 9 13 1017.8 1017.8 0.0
13/12:30pm 22.6 20.7 14.2 59 4.9 NNW 17 26 9 14 1018.1 1018.1 0.0
13/12:00pm 23.5 20.4 13.4 53 5.8 NW 22 35 12 19 1018.8 1018.8 0.0
13/11:30am 22.9 20.5 13.9 57 5.3 NNW 19 26 10 14 1019.4 1019.4 0.0
13/11:00am 22.9 21.1 14.5 59 4.9 NW 17 24 9 13 1020.1 1020.1 0.0

Other formats

Comma delimited format used in spreadsheet applications
http://www.bom.gov.au/fwo/IDN60801/IDN60801.94592.axf

JavaScript Object Notation format (JSON) in row-major order
http://www.bom.gov.au/fwo/IDN60801/IDN60801.94592.json

Data quality

Most of these data are generated automatically and are frequently updated. Quality checks on data are not normally performed. It is possible for incorrect values to appear. Refer to information at About Latest Weather Observations and please check the disclaimer before using these data.